sensor_id;sensor_type;location;lat;lon;timestamp;temperature;humidity
10300;DHT22;5195;48.562;9.192;2023-02-01T00:01:07;6.60;55.30
10300;DHT22;5195;48.562;9.192;2023-02-01T00:03:33;6.50;55.00
10300;DHT22;5195;48.562;9.192;2023-02-01T00:05:59;6.30;55.50
10300;DHT22;5195;48.562;9.192;2023-02-01T00:08:24;6.20;55.90
10300;DHT22;5195;48.562;9.192;2023-02-01T00:10:59;6.10;55.80
10300;DHT22;5195;48.562;9.192;2023-02-01T00:13:24;6.20;56.00
10300;DHT22;5195;48.562;9.192;2023-02-01T00:15:50;6.20;56.20
10300;DHT22;5195;48.562;9.192;2023-02-01T00:18:16;6.20;56.20
10300;DHT22;5195;48.562;9.192;2023-02-01T00:20:45;6.20;56.00
10300;DHT22;5195;48.562;9.192;2023-02-01T00:23:07;6.20;56.80
10300;DHT22;5195;48.562;9.192;2023-02-01T00:25:33;6.20;56.10
10300;DHT22;5195;48.562;9.192;2023-02-01T00:27:58;6.30;56.20
10300;DHT22;5195;48.562;9.192;2023-02-01T00:30:25;6.20;56.00
10300;DHT22;5195;48.562;9.192;2023-02-01T00:32:51;6.50;56.40
10300;DHT22;5195;48.562;9.192;2023-02-01T00:35:17;6.50;55.90
10300;DHT22;5195;48.562;9.192;2023-02-01T00:37:44;6.80;55.10
10300;DHT22;5195;48.562;9.192;2023-02-01T00:40:10;6.80;55.10
10300;DHT22;5195;48.562;9.192;2023-02-01T00:42:36;6.70;55.20
10300;DHT22;5195;48.562;9.192;2023-02-01T00:45:01;6.30;55.60
10300;DHT22;5195;48.562;9.192;2023-02-01T00:47:27;6.30;56.10
10300;DHT22;5195;48.562;9.192;2023-02-01T00:49:53;6.30;56.10
10300;DHT22;5195;48.562;9.192;2023-02-01T00:52:20;6.10;56.40
10300;DHT22;5195;48.562;9.192;2023-02-01T00:54:45;6.10;56.70
10300;DHT22;5195;48.562;9.192;2023-02-01T00:57:12;6.20;56.70
10300;DHT22;5195;48.562;9.192;2023-02-01T00:59:40;6.20;56.70
10300;DHT22;5195;48.562;9.192;2023-02-01T01:02:06;6.30;56.70
10300;DHT22;5195;48.562;9.192;2023-02-01T01:04:32;6.30;56.70
10300;DHT22;5195;48.562;9.192;2023-02-01T01:06:57;6.50;56.30
10300;DHT22;5195;48.562;9.192;2023-02-01T01:09:24;6.90;55.50
10300;DHT22;5195;48.562;9.192;2023-02-01T01:11:49;6.90;55.50
10300;DHT22;5195;48.562;9.192;2023-02-01T01:14:17;7.10;55.00
10300;DHT22;5195;48.562;9.192;2023-02-01T01:16:44;7.10;54.90
10300;DHT22;5195;48.562;9.192;2023-02-01T01:19:09;7.20;54.70
10300;DHT22;5195;48.562;9.192;2023-02-01T01:21:35;6.90;54.70
10300;DHT22;5195;48.562;9.192;2023-02-01T01:24:00;6.80;55.10
10300;DHT22;5195;48.562;9.192;2023-02-01T01:26:27;7.10;55.50
10300;DHT22;5195;48.562;9.192;2023-02-01T01:28:55;7.10;54.30
10300;DHT22;5195;48.562;9.192;2023-02-01T01:31:20;7.10;54.30
10300;DHT22;5195;48.562;9.192;2023-02-01T01:33:49;7.20;54.20
10300;DHT22;5195;48.562;9.192;2023-02-01T01:36:14;7.20;54.10
10300;DHT22;5195;48.562;9.192;2023-02-01T01:38:40;7.00;54.30
10300;DHT22;5195;48.562;9.192;2023-02-01T01:41:06;6.60;55.00
10300;DHT22;5195;48.562;9.192;2023-02-01T01:46:18;6.70;55.40
10300;DHT22;5195;48.562;9.192;2023-02-01T01:48:47;6.60;55.40
10300;DHT22;5195;48.562;9.192;2023-02-01T01:51:11;6.50;55.60
10300;DHT22;5195;48.562;9.192;2023-02-01T01:53:45;6.50;55.70
10300;DHT22;5195;48.562;9.192;2023-02-01T01:56:09;6.50;56.00
10300;DHT22;5195;48.562;9.192;2023-02-01T01:58:36;6.70;55.60
10300;DHT22;5195;48.562;9.192;2023-02-01T02:01:03;6.60;55.40
10300;DHT22;5195;48.562;9.192;2023-02-01T02:03:42;6.10;56.40
10300;DHT22;5195;48.562;9.192;2023-02-01T02:06:09;6.10;56.40
10300;DHT22;5195;48.562;9.192;2023-02-01T02:08:31;5.90;56.80
10300;DHT22;5195;48.562;9.192;2023-02-01T02:10:57;6.00;57.20
10300;DHT22;5195;48.562;9.192;2023-02-01T02:13:35;6.30;56.80
10300;DHT22;5195;48.562;9.192;2023-02-01T02:21:18;6.30;56.30
10300;DHT22;5195;48.562;9.192;2023-02-01T02:26:35;6.30;57.00
10300;DHT22;5195;48.562;9.192;2023-02-01T02:34:58;7.00;55.20
10300;DHT22;5195;48.562;9.192;2023-02-01T02:37:37;7.20;54.80
10300;DHT22;5195;48.562;9.192;2023-02-01T02:42:50;6.60;55.50
10300;DHT22;5195;48.562;9.192;2023-02-01T02:45:46;6.60;55.50
10300;DHT22;5195;48.562;9.192;2023-02-01T02:48:30;6.30;56.10
10300;DHT22;5195;48.562;9.192;2023-02-01T02:51:14;6.10;56.60
10300;DHT22;5195;48.562;9.192;2023-02-01T02:54:13;6.00;57.10
10300;DHT22;5195;48.562;9.192;2023-02-01T02:56:57;5.80;57.40
10300;DHT22;5195;48.562;9.192;2023-02-01T02:59:43;5.70;57.50
10300;DHT22;5195;48.562;9.192;2023-02-01T03:02:28;5.60;57.80
10300;DHT22;5195;48.562;9.192;2023-02-01T03:05:14;6.30;57.80
10300;DHT22;5195;48.562;9.192;2023-02-01T03:07:54;6.30;57.80
10300;DHT22;5195;48.562;9.192;2023-02-01T03:18:39;7.00;56.20
10300;DHT22;5195;48.562;9.192;2023-02-01T03:21:03;6.80;56.10
10300;DHT22;5195;48.562;9.192;2023-02-01T03:23:31;6.60;56.60
10300;DHT22;5195;48.562;9.192;2023-02-01T03:25:55;6.30;57.10
10300;DHT22;5195;48.562;9.192;2023-02-01T03:28:21;6.40;57.60
10300;DHT22;5195;48.562;9.192;2023-02-01T03:30:46;6.30;57.30
10300;DHT22;5195;48.562;9.192;2023-02-01T03:33:21;6.50;57.50
10300;DHT22;5195;48.562;9.192;2023-02-01T03:38:40;7.00;56.30
10300;DHT22;5195;48.562;9.192;2023-02-01T03:41:28;6.90;56.20
10300;DHT22;5195;48.562;9.192;2023-02-01T03:46:25;6.70;56.50
10300;DHT22;5195;48.562;9.192;2023-02-01T03:48:48;6.40;57.00
10300;DHT22;5195;48.562;9.192;2023-02-01T03:51:14;6.20;57.50
10300;DHT22;5195;48.562;9.192;2023-02-01T03:53:40;6.30;57.60
10300;DHT22;5195;48.562;9.192;2023-02-01T03:56:06;6.40;57.40
10300;DHT22;5195;48.562;9.192;2023-02-01T03:58:31;6.20;57.50
10300;DHT22;5195;48.562;9.192;2023-02-01T04:00:57;6.10;57.80
10300;DHT22;5195;48.562;9.192;2023-02-01T04:03:23;5.80;58.20
10300;DHT22;5195;48.562;9.192;2023-02-01T04:05:49;5.80;58.20
10300;DHT22;5195;48.562;9.192;2023-02-01T04:08:18;6.40;57.50
10300;DHT22;5195;48.562;9.192;2023-02-01T04:10:42;6.40;57.50
10300;DHT22;5195;48.562;9.192;2023-02-01T04:13:07;6.70;56.60
10300;DHT22;5195;48.562;9.192;2023-02-01T04:15:34;7.10;55.30
10300;DHT22;5195;48.562;9.192;2023-02-01T04:17:59;7.20;55.40
10300;DHT22;5195;48.562;9.192;2023-02-01T04:20:25;7.00;55.50
10300;DHT22;5195;48.562;9.192;2023-02-01T04:22:51;7.00;55.40
10300;DHT22;5195;48.562;9.192;2023-02-01T04:25:17;7.10;55.00
10300;DHT22;5195;48.562;9.192;2023-02-01T04:27:43;7.30;54.60
10300;DHT22;5195;48.562;9.192;2023-02-01T04:30:09;7.10;54.60
10300;DHT22;5195;48.562;9.192;2023-02-01T04:32:37;6.90;55.00
10300;DHT22;5195;48.562;9.192;2023-02-01T04:35:03;6.90;55.00
10300;DHT22;5195;48.562;9.192;2023-02-01T04:37:28;6.90;55.10
10300;DHT22;5195;48.562;9.192;2023-02-01T04:39:54;6.80;55.10
10300;DHT22;5195;48.562;9.192;2023-02-01T04:42:19;6.60;55.60
10300;DHT22;5195;48.562;9.192;2023-02-01T04:44:45;6.60;55.90
10300;DHT22;5195;48.562;9.192;2023-02-01T04:47:10;6.60;55.80
10300;DHT22;5195;48.562;9.192;2023-02-01T04:49:36;6.60;55.70
10300;DHT22;5195;48.562;9.192;2023-02-01T04:52:03;6.60;55.60
10300;DHT22;5195;48.562;9.192;2023-02-01T04:54:30;6.40;55.90
10300;DHT22;5195;48.562;9.192;2023-02-01T04:56:55;6.20;56.10
10300;DHT22;5195;48.562;9.192;2023-02-01T04:59:21;6.00;56.40
10300;DHT22;5195;48.562;9.192;2023-02-01T05:01:46;6.20;56.50
10300;DHT22;5195;48.562;9.192;2023-02-01T05:04:12;6.50;55.90
10300;DHT22;5195;48.562;9.192;2023-02-01T05:06:38;6.80;55.30
10300;DHT22;5195;48.562;9.192;2023-02-01T05:09:03;6.70;55.20
10300;DHT22;5195;48.562;9.192;2023-02-01T05:11:29;6.50;55.60
10300;DHT22;5195;48.562;9.192;2023-02-01T05:14:15;6.50;55.60
10300;DHT22;5195;48.562;9.192;2023-02-01T05:16:40;6.80;55.00
10300;DHT22;5195;48.562;9.192;2023-02-01T05:19:07;6.70;54.70
10300;DHT22;5195;48.562;9.192;2023-02-01T05:21:32;6.80;54.80
10300;DHT22;5195;48.562;9.192;2023-02-01T05:23:58;7.00;54.30
10300;DHT22;5195;48.562;9.192;2023-02-01T05:26:37;7.10;53.90
10300;DHT22;5195;48.562;9.192;2023-02-01T05:29:04;7.30;53.60
10300;DHT22;5195;48.562;9.192;2023-02-01T05:31:30;7.40;53.20
10300;DHT22;5195;48.562;9.192;2023-02-01T05:33:55;7.20;53.40
10300;DHT22;5195;48.562;9.192;2023-02-01T05:36:21;7.10;53.60
10300;DHT22;5195;48.562;9.192;2023-02-01T05:38:46;6.90;53.70
10300;DHT22;5195;48.562;9.192;2023-02-01T05:41:12;6.90;54.00
10300;DHT22;5195;48.562;9.192;2023-02-01T05:43:37;7.10;53.70
10300;DHT22;5195;48.562;9.192;2023-02-01T05:46:03;7.00;53.70
10300;DHT22;5195;48.562;9.192;2023-02-01T05:48:29;6.90;53.70
10300;DHT22;5195;48.562;9.192;2023-02-01T05:50:54;7.10;53.30
10300;DHT22;5195;48.562;9.192;2023-02-01T05:53:20;7.00;53.30
10300;DHT22;5195;48.562;9.192;2023-02-01T05:55:46;7.20;53.10
10300;DHT22;5195;48.562;9.192;2023-02-01T05:58:12;7.20;53.10
10300;DHT22;5195;48.562;9.192;2023-02-01T06:00:38;7.30;52.60
10300;DHT22;5195;48.562;9.192;2023-02-01T06:03:03;7.50;52.40
10300;DHT22;5195;48.562;9.192;2023-02-01T06:05:29;7.30;52.80
10300;DHT22;5195;48.562;9.192;2023-02-01T06:07:55;7.20;52.80
10300;DHT22;5195;48.562;9.192;2023-02-01T06:10:21;7.40;52.80
10300;DHT22;5195;48.562;9.192;2023-02-01T06:12:47;7.50;52.40
10300;DHT22;5195;48.562;9.192;2023-02-01T06:15:12;7.60;52.30
10300;DHT22;5195;48.562;9.192;2023-02-01T06:17:38;7.70;52.00
10300;DHT22;5195;48.562;9.192;2023-02-01T06:20:04;7.70;51.90
10300;DHT22;5195;48.562;9.192;2023-02-01T06:22:29;7.50;52.20
10300;DHT22;5195;48.562;9.192;2023-02-01T06:24:56;7.20;52.70
10300;DHT22;5195;48.562;9.192;2023-02-01T06:27:21;7.20;52.70
10300;DHT22;5195;48.562;9.192;2023-02-01T06:29:47;7.20;52.90
10300;DHT22;5195;48.562;9.192;2023-02-01T06:32:12;7.40;52.60
10300;DHT22;5195;48.562;9.192;2023-02-01T06:34:38;7.20;52.60
10300;DHT22;5195;48.562;9.192;2023-02-01T06:37:04;6.90;53.00
10300;DHT22;5195;48.562;9.192;2023-02-01T06:39:29;6.70;53.60
10300;DHT22;5195;48.562;9.192;2023-02-01T06:41:55;6.50;54.00
10300;DHT22;5195;48.562;9.192;2023-02-01T06:44:20;6.60;54.10
10300;DHT22;5195;48.562;9.192;2023-02-01T06:46:46;6.90;54.10
10300;DHT22;5195;48.562;9.192;2023-02-01T06:49:11;6.90;53.80
10300;DHT22;5195;48.562;9.192;2023-02-01T06:51:38;7.10;54.70
10300;DHT22;5195;48.562;9.192;2023-02-01T06:54:03;7.10;54.70
10300;DHT22;5195;48.562;9.192;2023-02-01T06:56:29;6.90;54.40
10300;DHT22;5195;48.562;9.192;2023-02-01T06:58:54;6.60;54.90
10300;DHT22;5195;48.562;9.192;2023-02-01T07:01:20;6.60;55.80
10300;DHT22;5195;48.562;9.192;2023-02-01T07:03:49;6.50;55.60
10300;DHT22;5195;48.562;9.192;2023-02-01T07:06:15;6.30;56.00
10300;DHT22;5195;48.562;9.192;2023-02-01T07:08:40;6.30;56.80
10300;DHT22;5195;48.562;9.192;2023-02-01T07:11:06;6.60;56.80
10300;DHT22;5195;48.562;9.192;2023-02-01T07:13:32;7.00;56.70
10300;DHT22;5195;48.562;9.192;2023-02-01T07:16:01;6.90;56.60
10300;DHT22;5195;48.562;9.192;2023-02-01T07:18:27;7.10;55.60
10300;DHT22;5195;48.562;9.192;2023-02-01T07:20:52;6.90;55.50
10300;DHT22;5195;48.562;9.192;2023-02-01T07:23:17;6.80;55.80
10300;DHT22;5195;48.562;9.192;2023-02-01T07:25:43;7.00;55.70
10300;DHT22;5195;48.562;9.192;2023-02-01T07:28:08;7.10;55.30
10300;DHT22;5195;48.562;9.192;2023-02-01T07:30:34;7.30;54.80
10300;DHT22;5195;48.562;9.192;2023-02-01T07:33:00;7.40;54.40
10300;DHT22;5195;48.562;9.192;2023-02-01T07:35:25;7.10;54.50
10300;DHT22;5195;48.562;9.192;2023-02-01T07:37:51;7.10;54.90
10300;DHT22;5195;48.562;9.192;2023-02-01T07:40:17;7.30;54.60
10300;DHT22;5195;48.562;9.192;2023-02-01T07:42:43;7.30;54.50
10300;DHT22;5195;48.562;9.192;2023-02-01T07:45:09;7.10;54.50
10300;DHT22;5195;48.562;9.192;2023-02-01T07:47:34;6.80;55.10
10300;DHT22;5195;48.562;9.192;2023-02-01T07:50:00;6.70;55.40
10300;DHT22;5195;48.562;9.192;2023-02-01T07:52:30;6.70;55.50
10300;DHT22;5195;48.562;9.192;2023-02-01T07:54:55;6.50;55.80
10300;DHT22;5195;48.562;9.192;2023-02-01T07:57:21;6.10;56.70
10300;DHT22;5195;48.562;9.192;2023-02-01T07:59:47;6.10;56.70
10300;DHT22;5195;48.562;9.192;2023-02-01T08:02:32;6.00;57.00
10300;DHT22;5195;48.562;9.192;2023-02-01T08:04:58;5.90;57.30
10300;DHT22;5195;48.562;9.192;2023-02-01T08:07:24;6.10;57.40
10300;DHT22;5195;48.562;9.192;2023-02-01T08:09:49;6.20;57.80
10300;DHT22;5195;48.562;9.192;2023-02-01T08:12:15;6.50;57.00
10300;DHT22;5195;48.562;9.192;2023-02-01T08:14:40;6.50;56.70
10300;DHT22;5195;48.562;9.192;2023-02-01T08:17:07;6.70;56.00
10300;DHT22;5195;48.562;9.192;2023-02-01T08:19:32;6.70;56.00
10300;DHT22;5195;48.562;9.192;2023-02-01T08:21:58;6.60;56.10
10300;DHT22;5195;48.562;9.192;2023-02-01T08:24:23;6.70;55.90
10300;DHT22;5195;48.562;9.192;2023-02-01T08:26:49;7.00;55.10
10300;DHT22;5195;48.562;9.192;2023-02-01T08:29:15;7.00;55.00
10300;DHT22;5195;48.562;9.192;2023-02-01T08:31:40;6.80;55.30
10300;DHT22;5195;48.562;9.192;2023-02-01T08:34:06;6.60;55.70
10300;DHT22;5195;48.562;9.192;2023-02-01T08:36:32;6.70;55.50
10300;DHT22;5195;48.562;9.192;2023-02-01T08:38:57;7.10;54.90
10300;DHT22;5195;48.562;9.192;2023-02-01T08:41:26;6.90;54.90
10300;DHT22;5195;48.562;9.192;2023-02-01T08:43:50;6.90;54.90
10300;DHT22;5195;48.562;9.192;2023-02-01T08:46:16;6.70;55.20
10300;DHT22;5195;48.562;9.192;2023-02-01T08:48:41;6.60;55.60
10300;DHT22;5195;48.562;9.192;2023-02-01T08:51:08;6.50;55.90
10300;DHT22;5195;48.562;9.192;2023-02-01T08:53:32;6.70;55.30
10300;DHT22;5195;48.562;9.192;2023-02-01T08:55:58;6.80;55.20
10300;DHT22;5195;48.562;9.192;2023-02-01T08:58:24;6.90;55.50
10300;DHT22;5195;48.562;9.192;2023-02-01T09:00:49;7.00;54.90
10300;DHT22;5195;48.562;9.192;2023-02-01T09:03:15;7.20;54.80
10300;DHT22;5195;48.562;9.192;2023-02-01T09:05:40;7.40;53.80
10300;DHT22;5195;48.562;9.192;2023-02-01T09:08:06;7.70;52.70
10300;DHT22;5195;48.562;9.192;2023-02-01T09:10:31;8.00;51.70
10300;DHT22;5195;48.562;9.192;2023-02-01T09:12:57;8.10;51.40
10300;DHT22;5195;48.562;9.192;2023-02-01T09:15:22;8.00;51.30
10300;DHT22;5195;48.562;9.192;2023-02-01T09:17:49;7.60;51.80
10300;DHT22;5195;48.562;9.192;2023-02-01T09:20:14;7.60;51.60
10300;DHT22;5195;48.562;9.192;2023-02-01T09:22:39;7.80;51.20
10300;DHT22;5195;48.562;9.192;2023-02-01T09:25:05;7.70;51.40
10300;DHT22;5195;48.562;9.192;2023-02-01T09:27:31;7.80;51.60
10300;DHT22;5195;48.562;9.192;2023-02-01T09:29:58;7.60;51.60
10300;DHT22;5195;48.562;9.192;2023-02-01T09:32:23;7.40;52.20
10300;DHT22;5195;48.562;9.192;2023-02-01T09:34:49;7.40;52.00
10300;DHT22;5195;48.562;9.192;2023-02-01T09:37:14;7.60;51.70
10300;DHT22;5195;48.562;9.192;2023-02-01T09:39:40;7.80;51.30
10300;DHT22;5195;48.562;9.192;2023-02-01T09:42:23;7.80;51.60
10300;DHT22;5195;48.562;9.192;2023-02-01T09:47:31;7.80;51.30
10300;DHT22;5195;48.562;9.192;2023-02-01T09:52:31;7.70;51.30
10300;DHT22;5195;48.562;9.192;2023-02-01T09:55:03;7.80;51.40
10300;DHT22;5195;48.562;9.192;2023-02-01T09:57:35;8.00;50.90
10300;DHT22;5195;48.562;9.192;2023-02-01T09:59:57;7.90;51.00
10300;DHT22;5195;48.562;9.192;2023-02-01T10:02:22;7.90;50.90
10300;DHT22;5195;48.562;9.192;2023-02-01T10:04:47;7.80;50.90
10300;DHT22;5195;48.562;9.192;2023-02-01T10:10:00;7.70;51.10
10300;DHT22;5195;48.562;9.192;2023-02-01T10:15:42;7.90;51.30
10300;DHT22;5195;48.562;9.192;2023-02-01T10:21:14;8.10;49.70
10300;DHT22;5195;48.562;9.192;2023-02-01T10:26:22;8.50;49.00
10300;DHT22;5195;48.562;9.192;2023-02-01T10:28:52;8.70;48.50
10300;DHT22;5195;48.562;9.192;2023-02-01T10:31:16;8.80;48.10
10300;DHT22;5195;48.562;9.192;2023-02-01T10:33:43;8.60;48.70
10300;DHT22;5195;48.562;9.192;2023-02-01T10:38:33;8.40;49.10
10300;DHT22;5195;48.562;9.192;2023-02-01T10:41:16;8.50;49.00
10300;DHT22;5195;48.562;9.192;2023-02-01T10:43:37;8.50;48.30
10300;DHT22;5195;48.562;9.192;2023-02-01T10:46:03;8.70;47.90
10300;DHT22;5195;48.562;9.192;2023-02-01T10:48:29;8.90;47.50
10300;DHT22;5195;48.562;9.192;2023-02-01T10:51:06;8.90;47.50
10300;DHT22;5195;48.562;9.192;2023-02-01T10:53:54;8.70;48.00
10300;DHT22;5195;48.562;9.192;2023-02-01T10:56:21;8.60;48.00
10300;DHT22;5195;48.562;9.192;2023-02-01T10:58:46;8.40;48.60
10300;DHT22;5195;48.562;9.192;2023-02-01T11:01:08;8.30;48.50
10300;DHT22;5195;48.562;9.192;2023-02-01T11:06:33;8.00;49.50
10300;DHT22;5195;48.562;9.192;2023-02-01T11:08:59;8.00;49.50
10300;DHT22;5195;48.562;9.192;2023-02-01T11:11:24;8.30;49.00
10300;DHT22;5195;48.562;9.192;2023-02-01T11:13:57;8.20;49.20
10300;DHT22;5195;48.562;9.192;2023-02-01T11:16:21;8.00;49.70
10300;DHT22;5195;48.562;9.192;2023-02-01T11:18:52;7.70;50.00
10300;DHT22;5195;48.562;9.192;2023-02-01T11:21:13;7.80;49.70
10300;DHT22;5195;48.562;9.192;2023-02-01T11:23:40;7.70;49.80
10300;DHT22;5195;48.562;9.192;2023-02-01T11:26:14;7.80;49.20
10300;DHT22;5195;48.562;9.192;2023-02-01T11:28:37;7.80;49.50
10300;DHT22;5195;48.562;9.192;2023-02-01T11:31:03;7.60;49.90
10300;DHT22;5195;48.562;9.192;2023-02-01T11:33:29;7.70;49.40
10300;DHT22;5195;48.562;9.192;2023-02-01T11:35:53;7.90;48.90
10300;DHT22;5195;48.562;9.192;2023-02-01T11:40:47;7.70;49.70
10300;DHT22;5195;48.562;9.192;2023-02-01T11:45:38;7.70;49.30
10300;DHT22;5195;48.562;9.192;2023-02-01T11:48:13;7.60;50.30
10300;DHT22;5195;48.562;9.192;2023-02-01T11:53:38;8.00;48.90
10300;DHT22;5195;48.562;9.192;2023-02-01T12:01:47;8.40;48.00
10300;DHT22;5195;48.562;9.192;2023-02-01T12:06:55;8.20;48.20
10300;DHT22;5195;48.562;9.192;2023-02-01T12:12:04;8.40;47.60
10300;DHT22;5195;48.562;9.192;2023-02-01T12:20:16;8.50;47.60
10300;DHT22;5195;48.562;9.192;2023-02-01T12:22:44;8.30;47.80
10300;DHT22;5195;48.562;9.192;2023-02-01T12:25:44;8.30;47.80
10300;DHT22;5195;48.562;9.192;2023-02-01T12:38:44;7.80;48.70
10300;DHT22;5195;48.562;9.192;2023-02-01T12:46:33;7.50;49.70
10300;DHT22;5195;48.562;9.192;2023-02-01T12:51:37;7.50;49.30
10300;DHT22;5195;48.562;9.192;2023-02-01T12:54:20;7.50;49.20
10300;DHT22;5195;48.562;9.192;2023-02-01T12:56:47;7.70;48.70
10300;DHT22;5195;48.562;9.192;2023-02-01T12:59:26;8.00;47.70
10300;DHT22;5195;48.562;9.192;2023-02-01T13:01:59;8.00;48.00
10300;DHT22;5195;48.562;9.192;2023-02-01T13:04:31;7.50;49.00
10300;DHT22;5195;48.562;9.192;2023-02-01T13:09:55;7.70;48.40
10300;DHT22;5195;48.562;9.192;2023-02-01T13:12:21;8.00;47.20
10300;DHT22;5195;48.562;9.192;2023-02-01T13:14:46;8.30;47.10
10300;DHT22;5195;48.562;9.192;2023-02-01T13:17:18;8.20;47.50
10300;DHT22;5195;48.562;9.192;2023-02-01T13:19:47;8.00;48.10
10300;DHT22;5195;48.562;9.192;2023-02-01T13:22:12;8.00;47.60
10300;DHT22;5195;48.562;9.192;2023-02-01T13:24:38;7.90;47.90
10300;DHT22;5195;48.562;9.192;2023-02-01T13:27:01;7.70;48.30
10300;DHT22;5195;48.562;9.192;2023-02-01T13:29:27;7.50;48.80
10300;DHT22;5195;48.562;9.192;2023-02-01T13:32:10;7.60;48.50
10300;DHT22;5195;48.562;9.192;2023-02-01T13:40:47;8.60;47.30
10300;DHT22;5195;48.562;9.192;2023-02-01T13:43:05;8.70;46.30
10300;DHT22;5195;48.562;9.192;2023-02-01T13:45:29;8.70;46.30
10300;DHT22;5195;48.562;9.192;2023-02-01T13:47:55;8.80;45.90
10300;DHT22;5195;48.562;9.192;2023-02-01T13:50:34;8.80;46.30
10300;DHT22;5195;48.562;9.192;2023-02-01T13:53:03;8.60;46.90
10300;DHT22;5195;48.562;9.192;2023-02-01T13:55:35;8.60;46.90
10300;DHT22;5195;48.562;9.192;2023-02-01T13:58:50;8.50;47.20
10300;DHT22;5195;48.562;9.192;2023-02-01T14:00:34;8.40;47.50
10300;DHT22;5195;48.562;9.192;2023-02-01T14:10:46;8.40;47.70
10300;DHT22;5195;48.562;9.192;2023-02-01T14:13:31;8.40;47.60
10300;DHT22;5195;48.562;9.192;2023-02-01T14:23:43;8.30;48.50
10300;DHT22;5195;48.562;9.192;2023-02-01T14:26:09;8.50;47.80
10300;DHT22;5195;48.562;9.192;2023-02-01T14:34:00;7.90;48.90
10300;DHT22;5195;48.562;9.192;2023-02-01T14:36:25;7.60;49.30
10300;DHT22;5195;48.562;9.192;2023-02-01T14:38:51;7.60;49.30
10300;DHT22;5195;48.562;9.192;2023-02-01T14:41:31;7.80;49.40
10300;DHT22;5195;48.562;9.192;2023-02-01T14:47:04;8.30;47.90
10300;DHT22;5195;48.562;9.192;2023-02-01T14:49:34;8.60;46.80
10300;DHT22;5195;48.562;9.192;2023-02-01T14:51:59;8.60;46.80
10300;DHT22;5195;48.562;9.192;2023-02-01T14:54:24;8.70;46.50
10300;DHT22;5195;48.562;9.192;2023-02-01T14:56:51;8.40;46.90
10300;DHT22;5195;48.562;9.192;2023-02-01T14:59:16;8.00;47.60
10300;DHT22;5195;48.562;9.192;2023-02-01T15:01:48;7.80;48.40
10300;DHT22;5195;48.562;9.192;2023-02-01T15:04:12;7.70;48.30
10300;DHT22;5195;48.562;9.192;2023-02-01T15:06:48;7.90;48.50
10300;DHT22;5195;48.562;9.192;2023-02-01T15:11:58;7.60;48.40
10300;DHT22;5195;48.562;9.192;2023-02-01T15:14:22;7.40;49.10
10300;DHT22;5195;48.562;9.192;2023-02-01T15:16:47;7.50;49.10
10300;DHT22;5195;48.562;9.192;2023-02-01T15:19:13;7.80;48.80
10300;DHT22;5195;48.562;9.192;2023-02-01T15:21:46;7.80;48.80
10300;DHT22;5195;48.562;9.192;2023-02-01T15:24:19;7.80;48.40
10300;DHT22;5195;48.562;9.192;2023-02-01T15:26:44;8.10;48.00
10300;DHT22;5195;48.562;9.192;2023-02-01T15:29:13;7.90;48.10
10300;DHT22;5195;48.562;9.192;2023-02-01T15:31:43;7.90;49.20
10300;DHT22;5195;48.562;9.192;2023-02-01T15:34:09;7.90;48.50
10300;DHT22;5195;48.562;9.192;2023-02-01T15:36:35;8.20;48.10
10300;DHT22;5195;48.562;9.192;2023-02-01T15:39:12;8.20;48.10
10300;DHT22;5195;48.562;9.192;2023-02-01T15:41:36;8.10;48.30
10300;DHT22;5195;48.562;9.192;2023-02-01T15:44:17;7.80;48.80
10300;DHT22;5195;48.562;9.192;2023-02-01T15:48:55;7.40;49.80
10300;DHT22;5195;48.562;9.192;2023-02-01T15:51:21;7.50;49.50
10300;DHT22;5195;48.562;9.192;2023-02-01T15:53:48;7.70;49.40
10300;DHT22;5195;48.562;9.192;2023-02-01T15:56:12;7.70;49.40
10300;DHT22;5195;48.562;9.192;2023-02-01T15:58:40;7.70;49.40
10300;DHT22;5195;48.562;9.192;2023-02-01T16:01:04;7.50;49.80
10300;DHT22;5195;48.562;9.192;2023-02-01T16:03:43;7.30;50.00
10300;DHT22;5195;48.562;9.192;2023-02-01T16:06:09;7.50;49.90
10300;DHT22;5195;48.562;9.192;2023-02-01T16:08:33;7.80;49.10
10300;DHT22;5195;48.562;9.192;2023-02-01T16:11:16;8.30;48.20
10300;DHT22;5195;48.562;9.192;2023-02-01T16:13:39;8.30;47.90
10300;DHT22;5195;48.562;9.192;2023-02-01T16:16:04;8.10;48.20
10300;DHT22;5195;48.562;9.192;2023-02-01T16:18:30;8.10;48.10
10300;DHT22;5195;48.562;9.192;2023-02-01T16:20:56;7.90;48.40
10300;DHT22;5195;48.562;9.192;2023-02-01T16:23:22;8.10;47.60
10300;DHT22;5195;48.562;9.192;2023-02-01T16:25:48;8.10;48.00
10300;DHT22;5195;48.562;9.192;2023-02-01T16:28:14;8.00;48.30
10300;DHT22;5195;48.562;9.192;2023-02-01T16:30:39;7.70;48.80
10300;DHT22;5195;48.562;9.192;2023-02-01T16:33:05;7.50;49.70
10300;DHT22;5195;48.562;9.192;2023-02-01T16:35:36;7.80;48.40
10300;DHT22;5195;48.562;9.192;2023-02-01T16:38:11;7.80;48.40
10300;DHT22;5195;48.562;9.192;2023-02-01T16:40:36;8.10;47.90
10300;DHT22;5195;48.562;9.192;2023-02-01T16:43:05;7.90;48.00
10300;DHT22;5195;48.562;9.192;2023-02-01T16:45:28;7.90;48.00
10300;DHT22;5195;48.562;9.192;2023-02-01T16:47:54;7.60;49.00
10300;DHT22;5195;48.562;9.192;2023-02-01T16:50:24;7.50;48.90
10300;DHT22;5195;48.562;9.192;2023-02-01T16:52:49;7.40;49.40
10300;DHT22;5195;48.562;9.192;2023-02-01T16:55:15;7.20;49.80
10300;DHT22;5195;48.562;9.192;2023-02-01T16:57:40;7.00;50.00
10300;DHT22;5195;48.562;9.192;2023-02-01T17:00:10;6.90;50.30
10300;DHT22;5195;48.562;9.192;2023-02-01T17:02:34;7.10;50.00
10300;DHT22;5195;48.562;9.192;2023-02-01T17:04:59;7.10;49.90
10300;DHT22;5195;48.562;9.192;2023-02-01T17:07:26;7.20;49.80
10300;DHT22;5195;48.562;9.192;2023-02-01T17:09:51;7.20;49.80
10300;DHT22;5195;48.562;9.192;2023-02-01T17:12:24;7.20;50.10
10300;DHT22;5195;48.562;9.192;2023-02-01T17:14:49;7.30;49.10
10300;DHT22;5195;48.562;9.192;2023-02-01T17:17:14;7.40;49.30
10300;DHT22;5195;48.562;9.192;2023-02-01T17:19:40;7.50;49.00
10300;DHT22;5195;48.562;9.192;2023-02-01T17:22:07;7.60;49.30
10300;DHT22;5195;48.562;9.192;2023-02-01T17:24:32;7.60;48.60
10300;DHT22;5195;48.562;9.192;2023-02-01T17:26:57;7.40;49.10
10300;DHT22;5195;48.562;9.192;2023-02-01T17:29:23;7.20;49.60
10300;DHT22;5195;48.562;9.192;2023-02-01T17:31:53;7.00;50.00
10300;DHT22;5195;48.562;9.192;2023-02-01T17:34:17;7.10;49.60
10300;DHT22;5195;48.562;9.192;2023-02-01T17:36:44;7.40;49.10
10300;DHT22;5195;48.562;9.192;2023-02-01T17:39:09;7.40;49.10
10300;DHT22;5195;48.562;9.192;2023-02-01T17:41:35;7.10;49.40
10300;DHT22;5195;48.562;9.192;2023-02-01T17:44:00;7.20;49.20
10300;DHT22;5195;48.562;9.192;2023-02-01T17:46:26;7.50;48.80
10300;DHT22;5195;48.562;9.192;2023-02-01T17:48:52;7.40;48.80
10300;DHT22;5195;48.562;9.192;2023-02-01T17:51:19;7.20;49.30
10300;DHT22;5195;48.562;9.192;2023-02-01T17:53:43;7.00;49.70
10300;DHT22;5195;48.562;9.192;2023-02-01T17:56:16;6.90;50.20
10300;DHT22;5195;48.562;9.192;2023-02-01T17:58:40;6.70;50.50
10300;DHT22;5195;48.562;9.192;2023-02-01T18:01:08;6.90;50.20
10300;DHT22;5195;48.562;9.192;2023-02-01T18:03:32;6.90;50.10
10300;DHT22;5195;48.562;9.192;2023-02-01T18:05:58;6.80;50.50
10300;DHT22;5195;48.562;9.192;2023-02-01T18:08:26;7.00;50.00
10300;DHT22;5195;48.562;9.192;2023-02-01T18:10:54;7.00;50.10
10300;DHT22;5195;48.562;9.192;2023-02-01T18:13:16;6.90;50.00
10300;DHT22;5195;48.562;9.192;2023-02-01T18:15:42;6.90;50.10
10300;DHT22;5195;48.562;9.192;2023-02-01T18:18:07;7.20;49.60
10300;DHT22;5195;48.562;9.192;2023-02-01T18:20:33;7.50;49.10